createdAt,value
2023-04-12T00:01:29.682Z,39.77
2023-04-12T00:03:57.497Z,40.05
2023-04-12T00:06:27.765Z,40.13
2023-04-12T00:08:56.201Z,40.18
2023-04-12T00:11:26.128Z,40.36
2023-04-12T00:13:53.680Z,40.51
2023-04-12T00:16:23.854Z,40.44
2023-04-12T00:18:51.638Z,40.91
2023-04-12T00:21:19.867Z,41.10
2023-04-12T00:23:47.609Z,40.94
2023-04-12T00:26:16.002Z,41.10
2023-04-12T00:28:45.044Z,41.11
2023-04-12T00:31:12.833Z,41.25
2023-04-12T00:33:40.441Z,41.27
2023-04-12T00:36:08.572Z,41.60
2023-04-12T00:38:36.698Z,41.40
2023-04-12T00:41:04.824Z,41.62
2023-04-12T00:43:32.485Z,41.60
2023-04-12T00:46:00.320Z,41.57
2023-04-12T00:48:28.984Z,41.56
2023-04-12T00:50:57.781Z,41.52
2023-04-12T00:53:25.721Z,41.75
2023-04-12T00:55:54.629Z,41.65
2023-04-12T00:58:26.904Z,41.48
2023-04-12T01:00:54.885Z,41.50
2023-04-12T01:03:27.838Z,41.96
2023-04-12T01:06:21.793Z,42.14
2023-04-12T01:09:01.615Z,41.98
2023-04-12T01:11:34.895Z,42.12
2023-04-12T01:14:16.084Z,42.39
2023-04-12T01:16:47.901Z,42.63
2023-04-12T01:19:54.216Z,42.66
2023-04-12T01:22:54.888Z,42.56
2023-04-12T01:25:39.488Z,42.51
2023-04-12T01:28:14.905Z,42.85
2023-04-12T01:30:43.566Z,42.57
2023-04-12T01:33:12.591Z,42.98
2023-04-12T01:35:44.287Z,42.35
2023-04-12T01:38:12.015Z,42.62
2023-04-12T01:40:42.600Z,42.56
2023-04-12T01:43:12.588Z,42.73
2023-04-12T01:45:40.695Z,42.62
2023-04-12T01:48:10.117Z,42.70
2023-04-12T01:51:04.997Z,43.23
2023-04-12T01:53:48.238Z,42.98
2023-04-12T01:56:18.691Z,43.45
2023-04-12T01:58:48.772Z,43.91
2023-04-12T02:01:19.297Z,43.71
2023-04-12T02:03:51.788Z,43.93
2023-04-12T02:06:21.065Z,44.10
2023-04-12T02:08:48.960Z,43.75
2023-04-12T02:11:16.825Z,43.92
2023-04-12T02:13:45.207Z,44.21
2023-04-12T02:16:34.344Z,44.26
2023-04-12T02:19:02.240Z,44.60
2023-04-12T02:21:39.052Z,44.89
2023-04-12T02:24:06.662Z,44.76
2023-04-12T02:26:34.158Z,45.09
2023-04-12T02:29:01.885Z,44.87
2023-04-12T02:31:30.752Z,45.23
2023-04-12T02:33:58.868Z,45.17
2023-04-12T02:36:26.708Z,45.24
2023-04-12T02:38:54.589Z,45.44
2023-04-12T02:41:23.019Z,45.54
2023-04-12T02:43:51.181Z,45.38
2023-04-12T02:46:27.395Z,46.32
2023-04-12T02:48:59.512Z,45.74
2023-04-12T02:51:41.824Z,45.69
2023-04-12T02:54:10.410Z,45.84
2023-04-12T02:56:50.124Z,45.90
2023-04-12T02:59:39.908Z,45.56
2023-04-12T03:02:20.642Z,45.75
2023-04-12T03:04:50.948Z,45.41
2023-04-12T03:07:23.613Z,45.71
2023-04-12T03:09:52.842Z,46.00
2023-04-12T03:12:23.091Z,46.09
2023-04-12T03:15:05.541Z,45.81
2023-04-12T03:17:33.077Z,45.74
2023-04-12T03:20:10.232Z,46.62
2023-04-12T03:22:41.448Z,45.47
2023-04-12T03:25:12.788Z,45.52
2023-04-12T03:27:47.760Z,45.79
2023-04-12T03:30:19.332Z,45.47
2023-04-12T03:32:47.872Z,45.62
2023-04-12T03:35:15.733Z,45.32
2023-04-12T03:37:43.985Z,45.04
2023-04-12T03:40:13.298Z,44.90
2023-04-12T03:42:45.953Z,44.49
2023-04-12T03:45:15.698Z,44.47
2023-04-12T03:47:48.074Z,43.97
2023-04-12T03:50:17.456Z,43.86
2023-04-12T03:52:51.698Z,43.47
2023-04-12T03:55:19.378Z,43.54
2023-04-12T03:57:50.691Z,43.20
2023-04-12T04:00:20.191Z,42.92
2023-04-12T04:03:09.104Z,42.51
2023-04-12T04:05:45.378Z,42.33
2023-04-12T04:08:14.494Z,42.23
2023-04-12T04:10:52.563Z,41.98
2023-04-12T04:13:23.164Z,41.61
2023-04-12T04:16:06.054Z,41.28
2023-04-12T04:18:36.074Z,41.10
2023-04-12T04:21:07.478Z,40.92
2023-04-12T04:23:45.117Z,40.53
2023-04-12T04:26:14.016Z,40.29
2023-04-12T04:28:51.903Z,40.27
2023-04-12T04:31:26.379Z,40.00
2023-04-12T04:33:54.439Z,39.54
2023-04-12T04:36:30.095Z,39.07
2023-04-12T04:38:58.292Z,39.41
2023-04-12T04:41:41.539Z,39.15
2023-04-12T04:44:19.543Z,38.92
2023-04-12T04:46:55.060Z,38.29
2023-04-12T04:49:22.571Z,38.31
2023-04-12T04:51:50.567Z,38.33
2023-04-12T04:54:19.226Z,37.98
2023-04-12T04:56:46.705Z,37.67
2023-04-12T04:59:17.970Z,37.33
2023-04-12T05:01:45.819Z,37.10
2023-04-12T05:04:17.017Z,36.73
2023-04-12T05:06:46.026Z,36.63
2023-04-12T05:09:16.252Z,36.05
2023-04-12T05:11:49.096Z,35.74
2023-04-12T05:14:17.062Z,35.43
2023-04-12T05:16:44.652Z,35.25
2023-04-12T05:19:12.259Z,34.81
2023-04-12T05:21:40.808Z,34.68
2023-04-12T05:24:08.873Z,34.24
2023-04-12T05:26:38.798Z,33.56
2023-04-12T05:29:12.066Z,32.78
2023-04-12T05:31:39.735Z,32.35
2023-04-12T05:34:13.378Z,31.69
2023-04-12T05:36:51.205Z,31.02
2023-04-12T05:39:20.698Z,30.53
2023-04-12T05:41:49.564Z,29.86
2023-04-12T05:44:17.086Z,29.21
2023-04-12T05:46:45.796Z,28.88
2023-04-12T05:49:13.751Z,28.58
2023-04-12T05:51:41.885Z,28.26
2023-04-12T05:54:21.288Z,27.91
2023-04-12T05:56:55.222Z,27.77
2023-04-12T05:59:23.878Z,27.40
2023-04-12T06:01:52.113Z,26.81
2023-04-12T06:04:25.162Z,26.59
2023-04-12T06:06:57.881Z,26.38
2023-04-12T06:09:25.461Z,26.76
2023-04-12T06:11:53.922Z,26.18
2023-04-12T06:14:21.446Z,26.12
2023-04-12T06:16:49.274Z,25.91
2023-04-12T06:19:17.238Z,25.73
2023-04-12T06:21:44.818Z,25.39
2023-04-12T06:24:12.608Z,25.09
2023-04-12T06:26:43.180Z,24.59
2023-04-12T06:29:10.962Z,24.30
2023-04-12T06:31:38.537Z,23.71
2023-04-12T06:34:07.319Z,23.56
2023-04-12T06:36:40.284Z,23.39
2023-04-12T06:39:09.432Z,22.95
2023-04-12T06:41:37.149Z,22.54
2023-04-12T06:44:04.949Z,22.34
2023-04-12T06:46:32.641Z,22.20
2023-04-12T06:49:00.393Z,22.04
2023-04-12T06:51:28.403Z,21.70
2023-04-12T06:53:57.796Z,21.39
2023-04-12T06:56:25.360Z,21.10
2023-04-12T06:58:53.042Z,20.74
2023-04-12T07:01:20.793Z,20.66
2023-04-12T07:03:48.456Z,20.67
2023-04-12T07:06:24.946Z,20.65
2023-04-12T07:08:53.460Z,20.44
2023-04-12T07:11:24.116Z,19.96
2023-04-12T07:13:51.821Z,19.79
2023-04-12T07:16:19.575Z,19.01
2023-04-12T07:18:47.718Z,19.06
2023-04-12T07:21:17.576Z,18.21
2023-04-12T07:23:46.719Z,17.90
2023-04-12T07:26:14.343Z,17.47
2023-04-12T07:28:42.081Z,17.42
2023-04-12T07:31:09.609Z,16.71
2023-04-12T07:33:38.841Z,16.63
2023-04-12T07:36:08.612Z,16.25
2023-04-12T07:38:36.217Z,16.20
2023-04-12T07:41:03.853Z,16.18
2023-04-12T07:43:31.478Z,15.92
2023-04-12T07:45:59.679Z,15.58
2023-04-12T07:48:27.239Z,15.41
2023-04-12T07:50:54.783Z,15.71
2023-04-12T07:53:24.408Z,15.33
2023-04-12T07:55:52.238Z,15.69
2023-04-12T07:58:22.782Z,15.07
2023-04-12T08:00:51.152Z,14.62
2023-04-12T08:03:19.509Z,14.10
2023-04-12T08:05:49.633Z,14.48
2023-04-12T08:08:17.281Z,13.79
2023-04-12T08:10:50.474Z,13.60
2023-04-12T08:13:19.755Z,13.39
2023-04-12T08:15:50.400Z,12.86
2023-04-12T08:18:18.027Z,12.97
2023-04-12T08:20:45.737Z,12.69
2023-04-12T08:23:15.808Z,12.29
2023-04-12T08:25:43.329Z,12.32
2023-04-12T08:28:10.804Z,12.01
2023-04-12T08:30:38.432Z,11.91
2023-04-12T08:33:06.045Z,11.90
2023-04-12T08:35:33.963Z,12.13
2023-04-12T08:38:07.439Z,11.93
2023-04-12T08:40:35.797Z,11.73
2023-04-12T08:43:08.249Z,11.59
2023-04-12T08:45:36.399Z,11.85
2023-04-12T08:48:06.207Z,11.30
2023-04-12T08:50:34.469Z,10.85
2023-04-12T08:53:03.134Z,11.23
2023-04-12T08:55:30.745Z,10.86
2023-04-12T08:57:59.235Z,10.48
2023-04-12T09:00:27.706Z,10.47
2023-04-12T09:02:55.293Z,10.18
2023-04-12T09:05:29.949Z,10.04
2023-04-12T09:07:58.732Z,10.15
2023-04-12T09:10:38.076Z,10.53
2023-04-12T09:13:06.803Z,10.46
2023-04-12T09:15:35.017Z,10.97
2023-04-12T09:18:08.457Z,10.75
2023-04-12T09:20:36.768Z,10.38
2023-04-12T09:23:21.596Z,10.55
2023-04-12T09:25:51.947Z,9.92
2023-04-12T09:28:24.100Z,10.09
2023-04-12T09:30:56.544Z,9.76
2023-04-12T09:33:44.501Z,9.10
2023-04-12T09:36:17.524Z,8.70
2023-04-12T09:39:06.149Z,8.75
2023-04-12T09:41:34.294Z,8.93
2023-04-12T09:44:02.732Z,8.80
2023-04-12T09:46:30.904Z,8.67
2023-04-12T09:49:00.875Z,8.78
2023-04-12T09:51:31.462Z,8.90
2023-04-12T09:54:01.578Z,8.55
2023-04-12T09:56:36.755Z,8.30
2023-04-12T09:59:06.885Z,8.23
2023-04-12T10:01:38.438Z,8.58
2023-04-12T10:04:08.768Z,8.26
2023-04-12T10:06:37.503Z,7.82
2023-04-12T10:09:06.812Z,7.79
2023-04-12T10:11:34.821Z,8.17
2023-04-12T10:14:06.245Z,7.75
2023-04-12T10:16:35.180Z,7.87
2023-04-12T10:19:04.239Z,7.44
2023-04-12T10:21:32.045Z,7.74
2023-04-12T10:24:00.715Z,7.51
2023-04-12T10:26:28.443Z,7.53
2023-04-12T10:29:27.889Z,6.91
2023-04-12T10:31:57.270Z,7.10
2023-04-12T10:34:31.230Z,7.30
2023-04-12T10:37:00.665Z,7.55
2023-04-12T10:39:47.333Z,7.67
2023-04-12T10:42:24.025Z,7.79
2023-04-12T10:44:53.371Z,8.13
2023-04-12T10:47:50.350Z,7.88
2023-04-12T10:50:24.569Z,7.70
2023-04-12T10:53:12.496Z,7.64
2023-04-12T10:55:41.356Z,7.46
2023-04-12T10:58:09.415Z,7.58
2023-04-12T11:00:58.843Z,7.87
2023-04-12T11:03:28.514Z,7.23
2023-04-12T11:06:16.308Z,7.24
2023-04-12T11:09:25.624Z,6.53
2023-04-12T11:11:58.094Z,6.72
2023-04-12T11:14:30.155Z,6.80
2023-04-12T11:17:06.625Z,6.89
2023-04-12T11:19:34.665Z,6.44
2023-04-12T11:22:04.478Z,6.56
2023-04-12T11:24:32.202Z,6.21
2023-04-12T11:27:00.990Z,6.26
2023-04-12T11:29:32.677Z,6.10
2023-04-12T11:32:03.558Z,6.40
2023-04-12T11:34:35.353Z,5.95
2023-04-12T11:37:10.479Z,5.89
2023-04-12T11:39:43.582Z,6.70
2023-04-12T11:42:23.223Z,6.03
2023-04-12T11:47:27.532Z,6.25
2023-04-12T11:49:57.271Z,5.98
2023-04-12T11:52:32.571Z,6.31
2023-04-12T11:55:07.021Z,5.99
2023-04-12T11:57:35.454Z,6.01
2023-04-12T12:00:06.790Z,6.36
2023-04-12T12:02:49.396Z,5.96
2023-04-12T12:05:24.840Z,6.44
2023-04-12T12:07:55.164Z,5.83
2023-04-12T12:10:41.724Z,5.94
2023-04-12T12:13:12.263Z,5.82
2023-04-12T12:15:45.076Z,5.48
2023-04-12T12:18:12.871Z,5.89
2023-04-12T12:20:49.078Z,6.21
2023-04-12T12:23:28.822Z,6.05
2023-04-12T12:26:18.840Z,5.96
2023-04-12T12:28:55.150Z,6.17
2023-04-12T12:31:23.426Z,5.83
2023-04-12T12:33:59.436Z,6.29
2023-04-12T12:36:32.847Z,6.16
2023-04-12T12:39:10.637Z,6.47
2023-04-12T12:41:40.089Z,6.82
2023-04-12T12:44:08.298Z,6.82
2023-04-12T12:49:06.847Z,6.79
2023-04-12T12:51:34.346Z,6.72
2023-04-12T12:54:01.845Z,6.58
2023-04-12T12:56:30.396Z,6.51
2023-04-12T12:58:58.010Z,6.35
2023-04-12T13:01:27.072Z,6.19
2023-04-12T13:03:54.948Z,6.93
2023-04-12T13:06:23.253Z,7.17
2023-04-12T13:08:52.356Z,7.84
2023-04-12T13:11:22.617Z,8.30
2023-04-12T13:13:50.255Z,8.49
2023-04-12T13:16:17.881Z,8.73
2023-04-12T13:18:45.601Z,9.03
2023-04-12T13:21:13.193Z,9.27
2023-04-12T13:23:40.673Z,9.26
2023-04-12T13:26:08.224Z,10.28
2023-04-12T13:28:35.729Z,11.47
2023-04-12T13:31:03.664Z,12.20
2023-04-12T13:33:31.220Z,13.27
2023-04-12T13:35:58.762Z,14.08
2023-04-12T13:38:26.711Z,14.44
2023-04-12T13:40:56.686Z,15.20
2023-04-12T13:43:24.295Z,15.30
2023-04-12T13:45:52.132Z,15.72
2023-04-12T13:48:19.993Z,15.68
2023-04-12T13:50:49.681Z,15.95
2023-04-12T13:53:18.469Z,16.23
2023-04-12T13:55:46.516Z,16.31
2023-04-12T13:58:14.379Z,16.77
2023-04-12T14:00:41.896Z,16.92
2023-04-12T14:03:09.543Z,17.68
2023-04-12T14:05:37.118Z,17.08
2023-04-12T14:08:04.811Z,17.38
2023-04-12T14:10:32.285Z,17.81
2023-04-12T14:13:00.555Z,18.27
2023-04-12T14:15:28.175Z,18.26
2023-04-12T14:17:56.184Z,18.85
2023-04-12T14:20:24.122Z,18.33
2023-04-12T14:22:51.761Z,18.21
2023-04-12T14:25:19.421Z,18.01
2023-04-12T14:27:46.941Z,17.99
2023-04-12T14:30:16.355Z,18.17
2023-04-12T14:32:47.316Z,18.23
2023-04-12T14:35:15.464Z,18.59
2023-04-12T14:37:43.127Z,18.70
2023-04-12T14:40:10.702Z,18.82
2023-04-12T14:42:38.700Z,18.83
2023-04-12T14:45:08.272Z,18.99
2023-04-12T14:47:36.043Z,19.18
2023-04-12T14:50:04.486Z,19.32
2023-04-12T14:52:32.301Z,19.61
2023-04-12T14:55:01.494Z,19.56
2023-04-12T14:57:29.589Z,19.51
2023-04-12T14:59:57.132Z,19.75
2023-04-12T15:02:26.371Z,20.15
2023-04-12T15:04:57.392Z,19.95
2023-04-12T15:07:25.598Z,20.16
2023-04-12T15:09:57.476Z,19.92
2023-04-12T15:12:25.028Z,20.12
2023-04-12T15:14:54.059Z,20.19
2023-04-12T15:17:21.792Z,20.28
2023-04-12T15:19:49.424Z,20.38
2023-04-12T15:22:16.901Z,20.47
2023-04-12T15:24:44.370Z,20.35
2023-04-12T15:27:11.961Z,20.32
2023-04-12T15:29:39.960Z,20.72
2023-04-12T15:32:08.813Z,20.57
2023-04-12T15:34:36.602Z,20.60
2023-04-12T15:37:05.387Z,20.60
2023-04-12T15:39:33.158Z,20.84
2023-04-12T15:42:01.194Z,20.85
2023-04-12T15:44:32.130Z,21.01
2023-04-12T15:47:10.864Z,21.07
2023-04-12T15:49:42.018Z,21.03
2023-04-12T15:52:09.868Z,21.11
2023-04-12T15:54:43.728Z,20.93
2023-04-12T15:57:11.742Z,21.29
2023-04-12T15:59:40.774Z,21.43
2023-04-12T16:02:10.177Z,21.34
2023-04-12T16:04:38.370Z,21.34
2023-04-12T16:07:06.183Z,21.32
2023-04-12T16:09:34.986Z,21.76
2023-04-12T16:12:02.653Z,21.92
2023-04-12T16:14:30.261Z,21.70
2023-04-12T16:17:02.259Z,21.98
2023-04-12T16:19:30.002Z,21.78
2023-04-12T16:21:58.166Z,22.01
2023-04-12T16:24:25.970Z,22.35
2023-04-12T16:26:53.759Z,21.85
2023-04-12T16:29:21.907Z,22.38
2023-04-12T16:31:49.737Z,22.30
2023-04-12T16:34:21.481Z,22.27
2023-04-12T16:36:49.707Z,22.46
2023-04-12T16:39:17.721Z,22.71
2023-04-12T16:41:47.201Z,22.86
2023-04-12T16:44:18.945Z,23.14
2023-04-12T16:46:48.264Z,22.68
2023-04-12T16:49:19.055Z,22.91
2023-04-12T16:51:49.875Z,22.92
2023-04-12T16:54:17.920Z,23.18
2023-04-12T16:56:47.894Z,23.25
2023-04-12T16:59:15.752Z,23.21
2023-04-12T17:01:44.445Z,23.35
2023-04-12T17:04:13.386Z,23.29
2023-04-12T17:06:44.998Z,23.47
2023-04-12T17:09:12.872Z,24.03
2023-04-12T17:11:40.800Z,23.81
2023-04-12T17:14:09.725Z,23.78
2023-04-12T17:16:38.507Z,23.91
2023-04-12T17:19:06.874Z,24.17
2023-04-12T17:21:42.240Z,25.44
2023-04-12T17:24:11.034Z,24.89
2023-04-12T17:26:38.981Z,24.55
2023-04-12T17:29:09.628Z,24.35
2023-04-12T17:31:37.809Z,24.41
2023-04-12T17:34:05.884Z,24.20
2023-04-12T17:36:34.088Z,24.33
2023-04-12T17:39:04.549Z,24.48
2023-04-12T17:41:32.221Z,24.37
2023-04-12T17:44:00.100Z,24.46
2023-04-12T17:46:27.781Z,24.98
2023-04-12T17:48:55.562Z,24.82
2023-04-12T17:51:23.350Z,24.84
2023-04-12T17:53:50.784Z,24.75
2023-04-12T17:56:18.853Z,24.62
2023-04-12T17:58:46.821Z,24.94
2023-04-12T18:01:14.515Z,25.00
2023-04-12T18:03:42.587Z,25.11
2023-04-12T18:06:10.323Z,25.39
2023-04-12T18:08:38.617Z,25.80
2023-04-12T18:11:07.780Z,26.32
2023-04-12T18:13:36.853Z,25.97
2023-04-12T18:16:04.855Z,25.52
2023-04-12T18:18:32.533Z,25.55
2023-04-12T18:21:03.910Z,25.71
2023-04-12T18:23:32.590Z,25.57
2023-04-12T18:26:00.248Z,25.64
2023-04-12T18:28:31.595Z,26.07
2023-04-12T18:31:02.362Z,26.29
2023-04-12T18:33:33.148Z,26.08
2023-04-12T18:36:04.072Z,26.28
2023-04-12T18:38:35.686Z,26.73
2023-04-12T18:41:04.598Z,26.16
2023-04-12T18:43:33.325Z,26.32
2023-04-12T18:46:01.657Z,26.20
2023-04-12T18:48:30.512Z,26.05
2023-04-12T18:50:59.532Z,26.68
2023-04-12T18:53:27.180Z,26.57
2023-04-12T18:55:54.716Z,26.05
2023-04-12T18:58:23.559Z,26.63
2023-04-12T19:00:51.631Z,26.94
2023-04-12T19:03:19.481Z,27.02
2023-04-12T19:05:47.232Z,26.57
2023-04-12T19:08:15.289Z,26.16
2023-04-12T19:10:43.000Z,26.69
2023-04-12T19:13:11.423Z,26.27
2023-04-12T19:15:39.338Z,26.77
2023-04-12T19:18:07.277Z,26.61
2023-04-12T19:20:34.834Z,26.74
2023-04-12T19:23:03.480Z,26.87
2023-04-12T19:25:33.109Z,26.91
2023-04-12T19:28:01.258Z,26.79
2023-04-12T19:30:31.845Z,26.46
2023-04-12T19:33:00.281Z,26.99
2023-04-12T19:35:32.842Z,26.74
2023-04-12T19:38:00.497Z,26.49
2023-04-12T19:40:30.421Z,26.90
2023-04-12T19:42:58.938Z,26.74
2023-04-12T19:45:27.776Z,27.02
2023-04-12T19:47:55.384Z,26.89
2023-04-12T19:50:23.162Z,26.64
2023-04-12T19:52:50.670Z,26.76
2023-04-12T19:55:21.459Z,26.54
2023-04-12T19:57:49.243Z,26.93
2023-04-12T20:00:20.657Z,27.29
2023-04-12T20:02:53.373Z,27.18
2023-04-12T20:05:24.218Z,27.50
2023-04-12T20:07:52.810Z,27.41
2023-04-12T20:10:20.605Z,27.58
2023-04-12T20:12:48.166Z,27.73
2023-04-12T20:15:17.718Z,27.85
2023-04-12T20:17:45.981Z,27.60
2023-04-12T20:20:16.165Z,27.60
2023-04-12T20:22:46.306Z,27.92
2023-04-12T20:25:15.212Z,27.75
2023-04-12T20:27:44.760Z,27.85
2023-04-12T20:30:16.935Z,27.89
2023-04-12T20:32:44.853Z,28.04
2023-04-12T20:35:14.210Z,28.32
2023-04-12T20:37:42.090Z,28.05
2023-04-12T20:40:10.314Z,28.07
2023-04-12T20:42:37.959Z,27.92
2023-04-12T20:45:05.886Z,28.00
2023-04-12T20:47:34.814Z,27.97
2023-04-12T20:50:02.682Z,27.69
2023-04-12T20:52:31.246Z,28.38
2023-04-12T20:54:58.812Z,28.49
2023-04-12T20:57:27.682Z,28.31
2023-04-12T20:59:55.477Z,27.97
2023-04-12T21:02:23.158Z,28.14
2023-04-12T21:04:50.953Z,28.28
2023-04-12T21:07:20.295Z,28.16
2023-04-12T21:09:48.444Z,27.81
2023-04-12T21:12:17.678Z,27.97
2023-04-12T21:14:45.362Z,27.60
2023-04-12T21:17:13.283Z,27.70
2023-04-12T21:19:41.912Z,28.04
2023-04-12T21:22:09.497Z,28.04
2023-04-12T21:24:39.795Z,28.08
2023-04-12T21:27:08.439Z,28.06
2023-04-12T21:29:41.175Z,28.06
2023-04-12T21:32:09.648Z,27.84
2023-04-12T21:34:37.622Z,28.17
2023-04-12T21:37:05.597Z,27.97
2023-04-12T21:39:33.329Z,28.06
2023-04-12T21:42:01.719Z,27.96
2023-04-12T21:44:30.977Z,27.96
2023-04-12T21:46:58.527Z,27.91
2023-04-12T21:49:25.968Z,28.18
2023-04-12T21:51:57.038Z,28.21
2023-04-12T21:54:24.491Z,28.34
2023-04-12T21:56:51.974Z,28.34
2023-04-12T21:59:19.396Z,28.62
2023-04-12T22:01:47.022Z,28.93
2023-04-12T22:04:14.550Z,29.06
2023-04-12T22:06:44.614Z,29.64
2023-04-12T22:09:12.490Z,29.28
2023-04-12T22:11:40.188Z,29.60
2023-04-12T22:14:07.962Z,29.72
2023-04-12T22:16:35.433Z,29.92
2023-04-12T22:19:02.962Z,29.80
2023-04-12T22:21:31.054Z,29.52
2023-04-12T22:23:58.982Z,29.61
2023-04-12T22:26:26.761Z,29.53
2023-04-12T22:28:54.373Z,29.67
2023-04-12T22:31:22.451Z,29.59
2023-04-12T22:33:50.010Z,29.67
2023-04-12T22:36:17.768Z,30.12
2023-04-12T22:38:47.578Z,29.87
2023-04-12T22:41:18.434Z,30.46
2023-04-12T22:43:47.820Z,29.97
2023-04-12T22:46:18.842Z,29.93
2023-04-12T22:48:48.094Z,29.80
2023-04-12T22:51:15.808Z,29.91
2023-04-12T22:53:46.619Z,29.91
2023-04-12T22:56:14.140Z,29.98
2023-04-12T22:58:42.980Z,30.29
2023-04-12T23:01:10.937Z,30.34
2023-04-12T23:03:38.599Z,30.58
2023-04-12T23:06:06.302Z,30.47
2023-04-12T23:08:37.205Z,30.71
2023-04-12T23:11:05.176Z,30.87
2023-04-12T23:13:35.806Z,31.20
2023-04-12T23:16:03.764Z,31.21
2023-04-12T23:18:32.872Z,31.53
2023-04-12T23:21:01.824Z,31.47
2023-04-12T23:23:29.821Z,31.19
2023-04-12T23:25:57.307Z,31.06
2023-04-12T23:28:26.718Z,30.98
2023-04-12T23:30:54.379Z,31.34
2023-04-12T23:33:22.085Z,31.67
2023-04-12T23:36:02.749Z,31.78
2023-04-12T23:38:38.648Z,31.45
2023-04-12T23:41:07.527Z,31.72
2023-04-12T23:43:35.240Z,31.76
2023-04-12T23:46:03.280Z,32.07
2023-04-12T23:48:35.368Z,32.26
2023-04-12T23:51:03.114Z,32.13
2023-04-12T23:53:30.848Z,32.02
2023-04-12T23:55:58.856Z,31.81
2023-04-12T23:58:26.704Z,31.80
